createdAt,value
2019-04-14T00:00:36.907Z,81.30
2019-04-14T00:04:40.462Z,81.90
2019-04-14T00:08:43.628Z,82.30
2019-04-14T00:12:46.762Z,82.40
2019-04-14T00:16:49.068Z,81.90
2019-04-14T00:20:51.271Z,82.00
2019-04-14T00:24:53.297Z,82.30
2019-04-14T00:28:57.911Z,81.70
2019-04-14T00:33:04.398Z,81.20
2019-04-14T00:37:14.091Z,81.60
2019-04-14T00:41:18.036Z,81.20
2019-04-14T00:45:34.927Z,81.60
2019-04-14T00:49:25.411Z,81.50
2019-04-14T00:53:27.536Z,82.20
2019-04-14T00:57:29.421Z,82.50
2019-04-14T01:01:31.345Z,82.90
2019-04-14T01:05:34.536Z,83.10
2019-04-14T01:09:37.018Z,83.40
2019-04-14T01:13:39.746Z,83.90
2019-04-14T01:17:41.851Z,84.30
2019-04-14T01:21:43.727Z,84.20
2019-04-14T01:25:45.645Z,85.00
2019-04-14T01:29:47.552Z,85.00
2019-04-14T01:33:49.449Z,84.70
2019-04-14T01:37:51.359Z,83.40
2019-04-14T01:41:54.291Z,84.10
2019-04-14T01:46:05.270Z,84.40
2019-04-14T01:49:59.994Z,85.00
2019-04-14T01:54:15.453Z,84.80
2019-04-14T01:58:19.070Z,85.40
2019-04-14T02:02:22.734Z,85.50
2019-04-14T02:06:24.712Z,85.80
2019-04-14T02:10:27.954Z,87.10
2019-04-14T02:14:30.182Z,86.40
2019-04-14T02:18:34.081Z,86.00
2019-04-14T02:22:36.045Z,85.80
2019-04-14T02:26:39.322Z,86.10
2019-04-14T02:30:53.934Z,86.70
2019-04-14T02:35:16.702Z,86.80
2019-04-14T02:43:25.425Z,86.70
2019-04-14T02:55:34.097Z,87.20
2019-04-14T02:59:39.121Z,87.10
2019-04-14T03:03:41.551Z,86.90
2019-04-14T03:07:48.225Z,87.30
2019-04-14T03:11:45.896Z,87.60
2019-04-14T03:15:57.386Z,87.50
2019-04-14T03:20:07.055Z,88.30
2019-04-14T03:24:07.064Z,88.60
2019-04-14T03:28:38.433Z,89.10
2019-04-14T03:44:42.054Z,88.80
2019-04-14T03:53:09.577Z,88.90
2019-04-14T03:56:53.567Z,88.70
2019-04-14T04:00:55.717Z,89.30
2019-04-14T04:04:57.770Z,88.70
2019-04-14T04:08:59.736Z,89.30
2019-04-14T04:13:12.593Z,89.50
2019-04-14T04:17:23.222Z,89.20
2019-04-14T04:21:24.948Z,89.60
2019-04-14T04:25:37.871Z,89.70
2019-04-14T04:29:41.970Z,89.50
2019-04-14T04:33:45.805Z,89.10
2019-04-14T04:37:52.351Z,89.00
2019-04-14T04:41:54.281Z,90.00
2019-04-14T04:45:56.487Z,90.00
2019-04-14T04:49:58.403Z,90.20
2019-04-14T04:54:01.607Z,90.00
2019-04-14T04:58:03.643Z,90.00
2019-04-14T05:02:05.565Z,89.90
2019-04-14T05:06:48.342Z,90.40
2019-04-14T05:10:52.457Z,90.20
2019-04-14T05:15:00.725Z,90.60
2019-04-14T05:19:14.020Z,90.20
2019-04-14T05:23:06.465Z,89.50
2019-04-14T05:27:08.388Z,90.10
2019-04-14T05:31:10.291Z,90.10
2019-04-14T05:35:12.203Z,90.20
2019-04-14T05:39:14.122Z,90.00
2019-04-14T05:43:28.279Z,89.50
2019-04-14T05:47:19.810Z,89.10
2019-04-14T05:51:23.268Z,89.10
2019-04-14T05:55:26.312Z,88.70
2019-04-14T05:59:28.590Z,87.90
2019-04-14T06:03:32.048Z,88.00
2019-04-14T06:07:35.021Z,87.70
2019-04-14T06:11:37.015Z,86.70
2019-04-14T06:15:38.931Z,86.00
2019-04-14T06:19:42.090Z,86.10
2019-04-14T06:23:44.003Z,85.30
2019-04-14T06:27:45.911Z,86.00
2019-04-14T06:32:04.180Z,85.70
2019-04-14T06:36:11.795Z,85.60
2019-04-14T06:40:13.709Z,85.80
2019-04-14T06:44:15.622Z,84.70
2019-04-14T06:48:17.548Z,84.40
2019-04-14T06:52:19.477Z,84.10
2019-04-14T06:56:21.377Z,83.60
2019-04-14T07:00:23.282Z,82.10
2019-04-14T07:04:25.295Z,82.10
2019-04-14T07:08:29.788Z,82.20
2019-04-14T07:12:30.824Z,82.20
2019-04-14T07:16:35.127Z,82.80
2019-04-14T07:20:38.078Z,82.00
2019-04-14T07:24:40.084Z,81.40
2019-04-14T07:28:42.171Z,81.30
2019-04-14T07:32:49.362Z,79.90
2019-04-14T07:36:58.763Z,80.90
2019-04-14T07:41:08.198Z,79.50
2019-04-14T07:45:14.905Z,78.50
2019-04-14T07:49:34.759Z,75.90
2019-04-14T07:53:38.388Z,76.10
2019-04-14T07:57:44.980Z,75.70
2019-04-14T08:01:57.672Z,72.30
2019-04-14T08:05:59.596Z,71.00
2019-04-14T08:10:01.707Z,70.90
2019-04-14T08:14:05.499Z,68.80
2019-04-14T08:18:07.366Z,68.30
2019-04-14T08:22:09.276Z,68.00
2019-04-14T08:26:11.198Z,68.70
2019-04-14T08:30:13.266Z,68.00
2019-04-14T08:34:15.175Z,67.90
2019-04-14T08:38:17.074Z,68.60
2019-04-14T08:42:20.628Z,67.90
2019-04-14T08:46:31.205Z,67.20
2019-04-14T08:50:40.940Z,66.30
2019-04-14T08:54:44.503Z,65.40
2019-04-14T08:59:06.229Z,66.20
2019-04-14T09:03:11.838Z,64.20
2019-04-14T09:07:18.300Z,62.50
2019-04-14T09:11:30.578Z,62.80
2019-04-14T09:15:32.581Z,61.70
2019-04-14T09:19:34.492Z,60.70
2019-04-14T09:23:36.404Z,60.30
2019-04-14T09:27:56.620Z,59.00
2019-04-14T09:32:00.049Z,58.40
2019-04-14T09:36:02.213Z,58.30
2019-04-14T09:40:04.554Z,57.20
2019-04-14T09:44:06.578Z,58.30
2019-04-14T09:48:08.492Z,56.80
2019-04-14T09:52:10.417Z,55.30
2019-04-14T09:56:12.294Z,55.50
2019-04-14T10:00:15.991Z,55.30
2019-04-14T10:04:17.894Z,55.40
2019-04-14T10:08:19.835Z,53.70
2019-04-14T10:12:21.806Z,53.90
2019-04-14T10:16:23.721Z,51.70
2019-04-14T10:20:25.621Z,52.40
2019-04-14T10:24:27.730Z,51.30
2019-04-14T10:28:29.632Z,51.40
2019-04-14T10:32:31.542Z,48.20
2019-04-14T10:36:33.558Z,47.30
2019-04-14T10:40:35.461Z,49.70
2019-04-14T10:44:37.395Z,48.20
2019-04-14T10:48:58.079Z,45.80
2019-04-14T10:52:59.983Z,45.40
2019-04-14T10:57:02.187Z,45.00
2019-04-14T11:01:05.436Z,44.90
2019-04-14T11:05:08.971Z,46.60
2019-04-14T11:09:16.868Z,48.50
2019-04-14T11:13:18.775Z,48.80
2019-04-14T11:17:21.639Z,49.70
2019-04-14T11:21:23.546Z,50.20
2019-04-14T11:25:25.478Z,49.80
2019-04-14T11:29:27.372Z,50.00
2019-04-14T11:33:33.796Z,49.40
2019-04-14T11:37:53.844Z,48.70
2019-04-14T11:41:55.758Z,47.00
2019-04-14T11:45:57.738Z,46.40
2019-04-14T11:49:59.689Z,46.70
2019-04-14T11:54:02.673Z,48.00
2019-04-14T11:58:04.582Z,49.20
2019-04-14T12:02:20.391Z,49.80
2019-04-14T12:06:33.123Z,49.40
2019-04-14T12:10:36.108Z,50.00
2019-04-14T12:14:38.092Z,52.00
2019-04-14T12:18:52.739Z,51.10
2019-04-14T12:22:54.649Z,51.10
2019-04-14T12:26:56.550Z,51.10
2019-04-14T12:30:59.684Z,52.10
2019-04-14T12:35:01.710Z,53.10
2019-04-14T12:39:07.639Z,53.20
2019-04-14T12:43:11.182Z,53.90
2019-04-14T12:47:29.929Z,53.30
2019-04-14T12:51:42.394Z,55.00
2019-04-14T12:55:44.317Z,57.20
2019-04-14T12:59:46.245Z,58.30
2019-04-14T13:03:48.143Z,59.90
2019-04-14T13:07:50.186Z,60.20
2019-04-14T13:11:52.239Z,61.80
2019-04-14T13:15:54.172Z,62.60
2019-04-14T13:19:56.075Z,62.10
2019-04-14T13:23:57.971Z,62.90
2019-04-14T13:27:59.883Z,64.80
2019-04-14T13:32:02.942Z,65.40
2019-04-14T13:36:05.188Z,66.50
2019-04-14T13:40:07.510Z,65.80
2019-04-14T13:44:09.407Z,67.60
2019-04-14T13:48:11.317Z,69.60
2019-04-14T13:52:13.323Z,70.50
2019-04-14T13:56:15.243Z,70.50
2019-04-14T14:00:18.071Z,71.10
2019-04-14T14:04:19.969Z,70.90
2019-04-14T14:08:21.897Z,71.20
2019-04-14T14:12:41.532Z,72.20
2019-04-14T14:17:00.056Z,73.10
2019-04-14T14:21:06.430Z,72.00
2019-04-14T14:25:11.161Z,72.50
2019-04-14T14:29:13.295Z,72.50
2019-04-14T14:33:15.196Z,73.00
2019-04-14T14:37:17.105Z,73.10
2019-04-14T14:41:19.094Z,73.50
2019-04-14T14:45:26.487Z,74.10
2019-04-14T14:49:31.125Z,74.20
2019-04-14T14:53:33.107Z,74.80
2019-04-14T14:57:35.078Z,74.90
2019-04-14T15:01:36.995Z,75.00
2019-04-14T15:05:38.922Z,75.20
2019-04-14T15:09:40.819Z,75.40
2019-04-14T15:13:42.733Z,75.20
2019-04-14T15:17:44.640Z,75.20
2019-04-14T15:21:46.550Z,74.70
2019-04-14T15:25:48.454Z,75.10
2019-04-14T15:30:10.816Z,76.20
2019-04-14T15:34:31.498Z,76.50
2019-04-14T15:38:48.248Z,77.10
2019-04-14T15:42:50.115Z,77.50
2019-04-14T15:46:52.012Z,77.30
2019-04-14T15:50:53.919Z,77.20
2019-04-14T15:54:55.809Z,77.90
2019-04-14T15:59:02.070Z,78.50
2019-04-14T16:03:20.983Z,77.90
2019-04-14T16:07:24.529Z,79.10
2019-04-14T16:11:46.551Z,78.10
2019-04-14T16:16:07.929Z,77.60
2019-04-14T16:20:14.696Z,78.30
2019-04-14T16:24:16.604Z,78.40
2019-04-14T16:28:20.160Z,79.30
2019-04-14T16:32:38.380Z,78.30
2019-04-14T16:36:41.361Z,79.30
2019-04-14T16:40:43.269Z,79.30
2019-04-14T16:44:45.347Z,79.20
2019-04-14T16:48:47.254Z,79.70
2019-04-14T16:52:50.804Z,79.20
2019-04-14T16:56:54.352Z,79.90
2019-04-14T17:01:17.225Z,80.20
2019-04-14T17:05:19.207Z,81.50
2019-04-14T17:09:21.121Z,81.60
2019-04-14T17:13:24.756Z,82.00
2019-04-14T17:17:44.269Z,82.10
2019-04-14T17:21:50.539Z,81.40
2019-04-14T17:26:12.265Z,81.20
2019-04-14T17:30:16.112Z,81.40
2019-04-14T17:34:25.362Z,82.20
2019-04-14T17:38:40.169Z,82.60
2019-04-14T17:42:52.922Z,83.10
2019-04-14T17:46:57.540Z,83.00
2019-04-14T17:51:03.456Z,83.10
2019-04-14T17:55:16.688Z,82.90
2019-04-14T17:59:26.159Z,83.40
2019-04-14T18:03:32.397Z,83.10
2019-04-14T18:07:35.940Z,83.00
2019-04-14T18:11:41.907Z,83.10
2019-04-14T18:15:51.419Z,83.50
2019-04-14T18:19:54.971Z,83.60
2019-04-14T18:23:56.861Z,83.80
2019-04-14T18:28:09.145Z,84.20
2019-04-14T18:32:12.708Z,83.80
2019-04-14T18:36:34.583Z,85.10
2019-04-14T18:40:39.210Z,84.40
2019-04-14T18:44:43.971Z,84.40
2019-04-14T18:48:50.481Z,84.50
2019-04-14T18:53:10.250Z,84.70
2019-04-14T18:57:13.798Z,84.50
2019-04-14T19:01:17.343Z,85.20
2019-04-14T19:05:19.240Z,85.90
2019-04-14T19:09:21.176Z,85.00
2019-04-14T19:13:30.802Z,85.40
2019-04-14T19:17:38.610Z,85.30
2019-04-14T19:21:40.618Z,85.20
2019-04-14T19:25:42.679Z,85.80
2019-04-14T19:29:44.591Z,86.10
2019-04-14T19:33:49.827Z,85.70
2019-04-14T19:37:51.743Z,85.90
2019-04-14T19:41:53.664Z,86.00
2019-04-14T19:45:56.552Z,86.00
2019-04-14T19:49:58.619Z,85.40
2019-04-14T19:54:00.604Z,85.80
2019-04-14T19:58:02.519Z,85.90
2019-04-14T20:02:04.504Z,85.70
2019-04-14T20:06:06.569Z,86.10
2019-04-14T20:10:10.129Z,86.50
2019-04-14T20:14:12.188Z,86.80
2019-04-14T20:18:24.700Z,86.70
2019-04-14T20:22:28.250Z,87.00
2019-04-14T20:26:31.939Z,86.70
2019-04-14T20:30:41.637Z,86.90
2019-04-14T20:34:43.599Z,86.80
2019-04-14T20:38:45.460Z,87.40
2019-04-14T20:42:48.342Z,87.70
2019-04-14T20:46:50.340Z,88.20
2019-04-14T20:50:52.239Z,88.10
2019-04-14T20:54:54.128Z,88.20
2019-04-14T20:58:56.040Z,88.90
2019-04-14T21:03:14.496Z,89.70
2019-04-14T21:07:53.304Z,90.10
2019-04-14T21:12:13.580Z,90.40
2019-04-14T21:16:32.365Z,90.30
2019-04-14T21:20:44.899Z,90.60
2019-04-14T21:25:04.486Z,90.90
2019-04-14T21:29:10.976Z,91.00
2019-04-14T21:33:17.508Z,91.00
2019-04-14T21:37:21.045Z,90.90
2019-04-14T21:41:24.603Z,91.20
2019-04-14T21:45:26.516Z,91.40
2019-04-14T21:49:28.428Z,91.50
2019-04-14T21:53:30.353Z,90.90
2019-04-14T21:57:39.405Z,91.70
2019-04-14T22:01:59.354Z,91.80
2019-04-14T22:06:12.068Z,91.90
2019-04-14T22:10:16.746Z,91.70
2019-04-14T22:14:18.650Z,91.70
2019-04-14T22:18:20.561Z,91.90
2019-04-14T22:22:22.474Z,91.70
2019-04-14T22:26:26.192Z,91.90
2019-04-14T22:30:28.037Z,92.20
2019-04-14T22:34:29.979Z,92.50
2019-04-14T22:38:31.916Z,92.50
2019-04-14T22:42:33.854Z,92.60
2019-04-14T22:46:35.758Z,92.80
2019-04-14T22:50:37.691Z,92.50
2019-04-14T22:54:39.606Z,92.50
2019-04-14T22:58:42.804Z,92.60
2019-04-14T23:02:46.288Z,92.60
2019-04-14T23:07:05.969Z,92.50
2019-04-14T23:11:09.503Z,92.60
2019-04-14T23:15:31.485Z,92.50
2019-04-14T23:19:58.244Z,92.30
2019-04-14T23:24:16.546Z,92.20
2019-04-14T23:28:18.456Z,92.30
2019-04-14T23:32:20.434Z,92.50
2019-04-14T23:36:22.356Z,92.30
2019-04-14T23:40:24.266Z,92.40
2019-04-14T23:44:26.197Z,92.40
2019-04-14T23:48:28.104Z,92.10
2019-04-14T23:52:30.002Z,91.90
2019-04-14T23:56:31.923Z,92.10
